Time;durP1;ratioP1;P1;durP2;ratioP2;P2;SDS_P1;SDS_P2;PMS_P1;PMS_P2;Temp;Humidity;BMP_temperature;BMP_pressure;BME280_temperature;BME280_humidity;BME280_pressure;Samples;Min_cycle;Max_cycle;Signal;HPM_P1;HPM_P2
2023/05/29 00:04:12;;;;;;;11.30;4.30;;;;;;;;;;10132241;28;20093;-68
2023/05/29 00:09:09;;;;;;;12.57;5.72;;;;;;;;;;10142870;28;20042;-68
2023/05/29 00:14:05;;;;;;;15.93;4.50;;;;;;;;;;10135584;28;20417;-68
2023/05/29 00:19:01;;;;;;;10.82;4.82;;;;;;;;;;10127470;28;20046;-67
2023/05/29 00:23:58;;;;;;;10.00;4.97;;;;;;;;;;10124965;28;20043;-68
2023/05/29 00:28:54;;;;;;;9.75;4.82;;;;;;;;;;10141353;28;20046;-68
2023/05/29 00:33:51;;;;;;;14.02;4.47;;;;;;;;;;10140093;28;20042;-67
2023/05/29 00:38:47;;;;;;;14.25;4.93;;;;;;;;;;10133528;28;20084;-68
2023/05/29 00:43:43;;;;;;;16.83;5.57;;;;;;;;;;10135163;28;20042;-68
2023/05/29 00:48:43;;;;;;;10.48;5.28;;;;;;;;;;10127728;28;20876;-68
2023/05/29 00:53:42;;;;;;;11.80;5.37;;;;;;;;;;10135807;28;20042;-68
2023/05/29 00:58:38;;;;;;;14.95;4.60;;;;;;;;;;10141761;28;20089;-68
2023/05/29 01:08:46;;;;;;;11.65;5.53;;;;;;;;;;10738640;23;20042;-72
2023/05/29 01:13:44;;;;;;;13.45;4.72;;;;;;;;;;10173336;28;20124;-72
2023/05/29 01:18:43;;;;;;;13.48;4.90;;;;;;;;;;10176682;28;20050;-70
2023/05/29 01:23:42;;;;;;;14.90;5.70;;;;;;;;;;10177805;28;20038;-70
2023/05/29 01:34:13;;;;;;;18.30;5.50;;;;;;;;;;10171314;28;20043;-72
2023/05/29 01:39:10;;;;;;;12.98;4.45;;;;;;;;;;10159704;28;20412;-72
2023/05/29 01:44:08;;;;;;;14.27;5.55;;;;;;;;;;10174564;28;20046;-70
2023/05/29 01:49:05;;;;;;;10.90;4.90;;;;;;;;;;10159541;28;20551;-70
2023/05/29 01:54:01;;;;;;;15.25;4.82;;;;;;;;;;10170713;28;20128;-71
2023/05/29 01:58:59;;;;;;;10.93;4.75;;;;;;;;;;10157637;28;20061;-70
2023/05/29 02:03:55;;;;;;;19.73;6.05;;;;;;;;;;10168098;28;20047;-70
2023/05/29 02:08:51;;;;;;;18.75;5.35;;;;;;;;;;10166734;28;20046;-71
2023/05/29 02:13:48;;;;;;;12.75;5.13;;;;;;;;;;10171298;28;20042;-71
2023/05/29 02:18:44;;;;;;;17.35;5.80;;;;;;;;;;10164318;28;20050;-72
2023/05/29 02:23:40;;;;;;;17.13;5.25;;;;;;;;;;10163442;28;20484;-72
2023/05/29 02:28:37;;;;;;;18.90;5.47;;;;;;;;;;10167383;28;20045;-70
2023/05/29 02:33:33;;;;;;;17.95;5.85;;;;;;;;;;10171301;28;20081;-72
2023/05/29 02:38:29;;;;;;;13.80;5.20;;;;;;;;;;10163862;28;20085;-72
2023/05/29 02:43:26;;;;;;;12.10;4.68;;;;;;;;;;10156777;28;20093;-72
2023/05/29 02:48:22;;;;;;;16.30;5.40;;;;;;;;;;10171828;28;20126;-72
2023/05/29 02:53:18;;;;;;;21.13;6.18;;;;;;;;;;10167442;28;20054;-72
2023/05/29 02:58:16;;;;;;;16.40;5.60;;;;;;;;;;10162486;28;20150;-72
2023/05/29 03:03:12;;;;;;;15.20;5.47;;;;;;;;;;10162307;28;20503;-72
2023/05/29 03:08:10;;;;;;;14.07;5.38;;;;;;;;;;10164004;28;20045;-72
2023/05/29 03:13:06;;;;;;;22.17;6.72;;;;;;;;;;10167404;28;20046;-72
2023/05/29 03:18:02;;;;;;;18.60;6.47;;;;;;;;;;10165841;28;20681;-72
2023/05/29 03:22:59;;;;;;;18.15;6.35;;;;;;;;;;10167698;28;20065;-73
2023/05/29 03:27:55;;;;;;;12.45;5.65;;;;;;;;;;10161043;28;20048;-72
2023/05/29 03:32:51;;;;;;;18.60;5.15;;;;;;;;;;10170391;28;20049;-72
2023/05/29 03:37:48;;;;;;;17.30;5.07;;;;;;;;;;10164688;28;20554;-71
2023/05/29 03:42:44;;;;;;;15.48;6.10;;;;;;;;;;10163690;28;20041;-73
2023/05/29 03:47:40;;;;;;;15.75;5.38;;;;;;;;;;10167498;28;20512;-73
2023/05/29 03:52:37;;;;;;;16.08;5.65;;;;;;;;;;10163808;28;20042;-72
2023/05/29 03:57:33;;;;;;;15.25;5.28;;;;;;;;;;10166093;28;20046;-72
2023/05/29 04:02:29;;;;;;;14.75;5.57;;;;;;;;;;10160099;28;20546;-73
2023/05/29 04:07:26;;;;;;;22.63;7.03;;;;;;;;;;10160227;28;20116;-72
2023/05/29 04:12:22;;;;;;;17.00;6.35;;;;;;;;;;10162036;28;20052;-72
2023/05/29 04:17:18;;;;;;;17.58;5.78;;;;;;;;;;10162470;28;20523;-72
2023/05/29 04:22:15;;;;;;;10.77;5.40;;;;;;;;;;10166041;28;20492;-73
2023/05/29 04:27:12;;;;;;;13.95;5.38;;;;;;;;;;10159264;28;20092;-72
2023/05/29 04:32:11;;;;;;;20.30;5.57;;;;;;;;;;10167566;28;20066;-72
2023/05/29 04:37:07;;;;;;;16.48;5.57;;;;;;;;;;10167495;28;20065;-73
2023/05/29 04:42:04;;;;;;;15.35;5.97;;;;;;;;;;10152582;28;20508;-72
2023/05/29 04:47:03;;;;;;;20.85;7.03;;;;;;;;;;10155781;28;20046;-73
2023/05/29 04:52:00;;;;;;;15.13;6.10;;;;;;;;;;10160084;28;20527;-72
2023/05/29 04:56:56;;;;;;;17.85;6.40;;;;;;;;;;10173067;28;20054;-72
2023/05/29 05:01:52;;;;;;;20.88;6.60;;;;;;;;;;10175191;28;20054;-72
2023/05/29 05:06:49;;;;;;;16.45;6.47;;;;;;;;;;10169648;28;20100;-73
2023/05/29 05:11:50;;;;;;;19.80;7.20;;;;;;;;;;10166729;28;20726;-73
2023/05/29 05:16:46;;;;;;;17.02;6.28;;;;;;;;;;10173039;28;20058;-72
2023/05/29 05:21:43;;;;;;;20.02;6.45;;;;;;;;;;10177682;28;20050;-72
2023/05/29 05:26:39;;;;;;;15.07;6.88;;;;;;;;;;10168521;28;20043;-72
2023/05/29 05:31:35;;;;;;;18.65;7.65;;;;;;;;;;10179784;28;20049;-73
2023/05/29 05:36:32;;;;;;;21.38;6.53;;;;;;;;;;10168339;28;20053;-72
2023/05/29 05:41:28;;;;;;;15.35;6.82;;;;;;;;;;10176022;28;20093;-72
2023/05/29 05:46:25;;;;;;;24.75;9.73;;;;;;;;;;10176452;28;20069;-72
2023/05/29 05:51:23;;;;;;;13.10;6.43;;;;;;;;;;10173378;28;20050;-72
2023/05/29 05:56:20;;;;;;;19.42;6.55;;;;;;;;;;10164986;28;20042;-72
2023/05/29 06:01:16;;;;;;;19.58;7.85;;;;;;;;;;10161656;28;20046;-72
2023/05/29 06:06:12;;;;;;;17.80;6.45;;;;;;;;;;10168164;28;20520;-72
2023/05/29 06:11:09;;;;;;;15.70;6.65;;;;;;;;;;10174401;28;20052;-72
2023/05/29 06:16:05;;;;;;;18.20;6.88;;;;;;;;;;10159823;28;20496;-72
2023/05/29 06:21:02;;;;;;;15.20;6.72;;;;;;;;;;10175228;28;20057;-72
2023/05/29 06:25:59;;;;;;;18.40;6.93;;;;;;;;;;10166553;28;20531;-72
2023/05/29 06:30:56;;;;;;;17.13;7.10;;;;;;;;;;10167438;28;20042;-73
2023/05/29 06:35:52;;;;;;;17.05;6.95;;;;;;;;;;10170349;28;20046;-72
2023/05/29 06:40:51;;;;;;;17.60;6.90;;;;;;;;;;10169672;28;20058;-72
2023/05/29 06:45:48;;;;;;;15.52;6.75;;;;;;;;;;10168053;28;20052;-72
2023/05/29 06:50:44;;;;;;;19.58;7.40;;;;;;;;;;10157831;28;20097;-72
2023/05/29 06:55:40;;;;;;;21.05;6.45;;;;;;;;;;10167765;28;20129;-72
2023/05/29 07:06:12;;;;;;;18.05;5.97;;;;;;;;;;10168647;28;20695;-73
2023/05/29 07:11:09;;;;;;;15.80;6.38;;;;;;;;;;10166235;28;20623;-72
2023/05/29 07:16:05;;;;;;;22.25;7.65;;;;;;;;;;10162519;28;20045;-72
2023/05/29 07:21:12;;;;;;;20.45;6.72;;;;;;;;;;10164680;28;20065;-72
2023/05/29 07:26:08;;;;;;;15.60;7.00;;;;;;;;;;10159026;28;20057;-72
2023/05/29 07:31:05;;;;;;;17.83;7.03;;;;;;;;;;10162479;28;20046;-72
2023/05/29 07:36:01;;;;;;;13.93;6.97;;;;;;;;;;10164054;28;20046;-72
2023/05/29 07:40:58;;;;;;;20.45;7.47;;;;;;;;;;10167973;28;20716;-72
2023/05/29 07:45:54;;;;;;;17.42;6.40;;;;;;;;;;10165914;28;20841;-72
2023/05/29 07:50:51;;;;;;;19.05;7.03;;;;;;;;;;10164573;28;20415;-72
2023/05/29 07:55:48;;;;;;;15.25;6.70;;;;;;;;;;10165005;28;20100;-72
2023/05/29 08:00:45;;;;;;;17.60;6.18;;;;;;;;;;10166287;28;20073;-72
2023/05/29 08:05:41;;;;;;;14.45;6.57;;;;;;;;;;10159930;28;20622;-72
2023/05/29 08:10:37;;;;;;;19.40;7.63;;;;;;;;;;10163459;28;20066;-72
2023/05/29 08:15:34;;;;;;;16.05;6.85;;;;;;;;;;10163577;28;20050;-72
2023/05/29 08:20:30;;;;;;;19.02;6.97;;;;;;;;;;10165364;28;20502;-72
2023/05/29 08:25:27;;;;;;;14.90;6.70;;;;;;;;;;10159095;28;20043;-72
2023/05/29 08:30:24;;;;;;;16.60;7.05;;;;;;;;;;10172902;28;20050;-73
2023/05/29 08:35:22;;;;;;;12.93;7.47;;;;;;;;;;10175239;28;20046;-72
2023/05/29 08:40:18;;;;;;;11.48;6.57;;;;;;;;;;10168257;28;20054;-73
2023/05/29 08:45:17;;;;;;;20.02;7.28;;;;;;;;;;10163866;28;20050;-72
2023/05/29 08:50:15;;;;;;;17.27;7.78;;;;;;;;;;10164639;28;20044;-72
2023/05/29 08:55:11;;;;;;;16.08;7.13;;;;;;;;;;10163679;28;20129;-72
2023/05/29 09:00:18;;;;;;;16.25;6.82;;;;;;;;;;10174188;28;20062;-72
2023/05/29 09:05:14;;;;;;;16.05;6.68;;;;;;;;;;10166053;28;20053;-73
2023/05/29 09:10:11;;;;;;;14.45;6.88;;;;;;;;;;10178065;28;20046;-72
2023/05/29 09:15:17;;;;;;;16.85;6.50;;;;;;;;;;10167197;28;20051;-72
2023/05/29 09:20:15;;;;;;;16.75;7.40;;;;;;;;;;10172239;28;20037;-72
2023/05/29 09:25:13;;;;;;;12.57;6.47;;;;;;;;;;10173183;28;20042;-72
2023/05/29 09:35:24;;;;;;;20.38;7.65;;;;;;;;;;10174256;28;20062;-73
2023/05/29 09:40:21;;;;;;;14.57;7.05;;;;;;;;;;10168706;28;20100;-72
2023/05/29 09:45:17;;;;;;;15.23;7.60;;;;;;;;;;10158730;28;20042;-71
2023/05/29 09:50:22;;;;;;;17.13;6.93;;;;;;;;;;10172976;28;20642;-72
2023/05/29 09:55:21;;;;;;;17.08;7.68;;;;;;;;;;10168211;28;20096;-72
2023/05/29 10:00:17;;;;;;;15.52;7.45;;;;;;;;;;10172714;28;20057;-72
2023/05/29 10:05:15;;;;;;;15.55;6.93;;;;;;;;;;10174762;28;20060;-72
2023/05/29 10:10:14;;;;;;;12.85;7.05;;;;;;;;;;10166161;28;20104;-72
2023/05/29 10:15:14;;;;;;;13.98;7.70;;;;;;;;;;10171183;28;20042;-71
2023/05/29 10:20:12;;;;;;;12.73;7.32;;;;;;;;;;10169616;28;20484;-72
2023/05/29 10:25:09;;;;;;;12.90;7.40;;;;;;;;;;10161707;28;20070;-73
2023/05/29 10:30:18;;;;;;;20.92;7.68;;;;;;;;;;10177473;28;20053;-72
2023/05/29 10:35:18;;;;;;;13.05;7.35;;;;;;;;;;10172301;28;20042;-73
2023/05/29 10:40:14;;;;;;;14.82;7.70;;;;;;;;;;10177966;28;20049;-74
2023/05/29 10:45:12;;;;;;;13.35;7.75;;;;;;;;;;10163295;28;20153;-72
2023/05/29 10:50:09;;;;;;;12.23;7.68;;;;;;;;;;10162443;28;20088;-71
2023/05/29 10:55:05;;;;;;;12.05;7.03;;;;;;;;;;10169870;28;20546;-72
2023/05/29 11:00:05;;;;;;;12.70;6.78;;;;;;;;;;10176886;28;20050;-71
2023/05/29 11:05:20;;;;;;;12.48;7.85;;;;;;;;;;10175203;28;20054;-72
2023/05/29 11:10:40;;;;;;;9.73;6.65;;;;;;;;;;10164112;28;20081;-71
2023/05/29 11:15:39;;;;;;;12.25;6.97;;;;;;;;;;10170860;28;20042;-72
2023/05/29 11:20:37;;;;;;;10.30;6.80;;;;;;;;;;10178715;28;20572;-72
2023/05/29 11:25:34;;;;;;;10.65;6.70;;;;;;;;;;10172543;28;20042;-72
2023/05/29 11:30:31;;;;;;;13.32;6.78;;;;;;;;;;10173063;28;20054;-71
2023/05/29 11:35:29;;;;;;;12.60;7.15;;;;;;;;;;10167299;28;20100;-72
2023/05/29 11:40:26;;;;;;;10.52;6.50;;;;;;;;;;10168132;28;20054;-72
2023/05/29 11:45:23;;;;;;;10.57;7.07;;;;;;;;;;10165766;28;20065;-73
2023/05/29 11:50:23;;;;;;;11.52;6.25;;;;;;;;;;10170588;28;20100;-72
2023/05/29 11:55:20;;;;;;;10.70;6.90;;;;;;;;;;10165524;28;20097;-72
2023/05/29 12:00:18;;;;;;;15.02;7.20;;;;;;;;;;10166573;28;20042;-72
2023/05/29 12:05:15;;;;;;;11.48;7.15;;;;;;;;;;10162994;28;20148;-73
2023/05/29 12:10:14;;;;;;;12.68;7.32;;;;;;;;;;10166819;28;20504;-73
2023/05/29 12:15:10;;;;;;;10.73;6.72;;;;;;;;;;10164013;28;20046;-72
2023/05/29 12:20:09;;;;;;;12.30;6.78;;;;;;;;;;10158656;28;20113;-72
2023/05/29 12:25:12;;;;;;;12.02;6.95;;;;;;;;;;10169649;28;20041;-73
2023/05/29 12:30:21;;;;;;;11.70;7.60;;;;;;;;;;10174798;28;20042;-72
2023/05/29 12:35:29;;;;;;;13.77;7.72;;;;;;;;;;10169757;28;20045;-72
2023/05/29 12:40:26;;;;;;;11.93;7.70;;;;;;;;;;10159044;28;20042;-73
2023/05/29 12:45:24;;;;;;;9.05;6.32;;;;;;;;;;10172376;28;20074;-73
2023/05/29 12:50:22;;;;;;;12.70;6.68;;;;;;;;;;10174444;28;20046;-74
2023/05/29 12:55:19;;;;;;;10.02;6.32;;;;;;;;;;10167488;28;20555;-72
2023/05/29 13:00:15;;;;;;;10.45;6.80;;;;;;;;;;10167001;28;20066;-72
2023/05/29 13:05:11;;;;;;;12.43;7.40;;;;;;;;;;10165857;28;20054;-72
2023/05/29 13:10:08;;;;;;;16.13;8.07;;;;;;;;;;10165931;28;20413;-72
2023/05/29 13:15:05;;;;;;;10.70;7.10;;;;;;;;;;10177425;28;20421;-72
2023/05/29 13:20:02;;;;;;;12.43;6.53;;;;;;;;;;10173394;28;20058;-72
2023/05/29 13:24:59;;;;;;;11.00;6.07;;;;;;;;;;10176436;28;20129;-73
2023/05/29 13:29:55;;;;;;;7.93;5.72;;;;;;;;;;10168338;28;20042;-72
2023/05/29 13:34:51;;;;;;;9.32;5.47;;;;;;;;;;10177083;28;20112;-72
2023/05/29 13:39:48;;;;;;;15.73;7.30;;;;;;;;;;10182316;28;20042;-72
2023/05/29 13:44:47;;;;;;;9.35;5.72;;;;;;;;;;10168835;28;20507;-73
2023/05/29 13:49:43;;;;;;;9.23;6.00;;;;;;;;;;10178288;28;20038;-72
2023/05/29 13:54:40;;;;;;;13.43;6.35;;;;;;;;;;10175193;28;20089;-72
2023/05/29 13:59:36;;;;;;;14.20;6.15;;;;;;;;;;10170353;28;21156;-73
2023/05/29 14:04:32;;;;;;;10.68;6.90;;;;;;;;;;10165427;28;20042;-73
2023/05/29 14:09:29;;;;;;;11.43;5.65;;;;;;;;;;10175570;28;20089;-72
2023/05/29 14:14:28;;;;;;;11.32;6.60;;;;;;;;;;10173814;28;20051;-72
2023/05/29 14:19:24;;;;;;;12.48;6.63;;;;;;;;;;10177123;28;20504;-72
2023/05/29 14:24:21;;;;;;;9.38;6.50;;;;;;;;;;10176286;28;20038;-72
2023/05/29 14:29:17;;;;;;;11.20;6.05;;;;;;;;;;10174962;28;20042;-73
2023/05/29 14:34:14;;;;;;;14.35;7.15;;;;;;;;;;10171978;28;20046;-73
2023/05/29 14:39:11;;;;;;;13.77;6.45;;;;;;;;;;10172900;28;20061;-72
2023/05/29 14:44:07;;;;;;;9.05;5.65;;;;;;;;;;10163863;28;20566;-72
2023/05/29 14:49:05;;;;;;;8.43;6.15;;;;;;;;;;10162463;28;20042;-73
2023/05/29 14:54:02;;;;;;;12.35;7.63;;;;;;;;;;10166368;28;20467;-72
2023/05/29 14:58:58;;;;;;;12.10;5.90;;;;;;;;;;10162982;28;20047;-73
2023/05/29 15:03:54;;;;;;;10.85;6.20;;;;;;;;;;10167623;28;20047;-73
2023/05/29 15:08:51;;;;;;;10.65;6.43;;;;;;;;;;10172110;28;20129;-73
2023/05/29 15:13:47;;;;;;;10.45;6.00;;;;;;;;;;10172139;28;20046;-72
2023/05/29 15:18:43;;;;;;;11.90;6.95;;;;;;;;;;10173260;28;20137;-72
2023/05/29 15:23:43;;;;;;;12.90;7.22;;;;;;;;;;10164784;28;20053;-73
2023/05/29 15:28:39;;;;;;;13.30;6.65;;;;;;;;;;10173223;28;20045;-72
2023/05/29 15:33:36;;;;;;;12.27;6.10;;;;;;;;;;10167423;28;20064;-72
2023/05/29 15:38:32;;;;;;;12.32;7.03;;;;;;;;;;10169559;28;20038;-72
2023/05/29 15:43:30;;;;;;;15.27;7.07;;;;;;;;;;10173393;28;20082;-72
2023/05/29 15:48:26;;;;;;;14.82;8.18;;;;;;;;;;10173276;28;20046;-72
2023/05/29 15:53:22;;;;;;;11.90;6.78;;;;;;;;;;10167555;28;21619;-73
2023/05/29 15:58:19;;;;;;;13.13;6.63;;;;;;;;;;10173072;28;20042;-73
2023/05/29 16:03:18;;;;;;;11.25;6.82;;;;;;;;;;10174478;28;20046;-73
2023/05/29 16:08:15;;;;;;;11.80;6.72;;;;;;;;;;10168034;28;20504;-72
2023/05/29 16:13:14;;;;;;;14.90;6.85;;;;;;;;;;10169929;28;20053;-73
2023/05/29 16:18:10;;;;;;;11.45;6.45;;;;;;;;;;10166707;28;20570;-73
2023/05/29 16:23:07;;;;;;;12.27;8.75;;;;;;;;;;10168276;28;20046;-72
2023/05/29 16:28:03;;;;;;;17.27;8.20;;;;;;;;;;10164211;28;20046;-72
2023/05/29 16:33:00;;;;;;;11.13;7.15;;;;;;;;;;10176866;28;20502;-72
2023/05/29 16:37:59;;;;;;;15.02;8.00;;;;;;;;;;10165914;28;20038;-72
2023/05/29 16:42:56;;;;;;;15.07;8.00;;;;;;;;;;10163198;28;20069;-72
2023/05/29 16:47:52;;;;;;;9.55;6.10;;;;;;;;;;10172289;28;20065;-72
2023/05/29 16:52:49;;;;;;;14.15;6.63;;;;;;;;;;10167678;28;20041;-72
2023/05/29 16:57:45;;;;;;;15.93;8.07;;;;;;;;;;10176897;28;20423;-72
2023/05/29 17:02:41;;;;;;;14.60;7.30;;;;;;;;;;10170064;28;20042;-72
2023/05/29 17:07:38;;;;;;;14.55;6.97;;;;;;;;;;10182453;28;20432;-73
2023/05/29 17:12:34;;;;;;;13.63;7.25;;;;;;;;;;10180504;28;20046;-72
2023/05/29 17:17:31;;;;;;;19.45;7.57;;;;;;;;;;10173334;28;20123;-72
2023/05/29 17:22:27;;;;;;;16.92;6.93;;;;;;;;;;10171461;28;20069;-72
2023/05/29 17:27:24;;;;;;;13.13;6.63;;;;;;;;;;10168409;28;20543;-72
2023/05/29 17:32:20;;;;;;;17.02;7.07;;;;;;;;;;10176167;28;20042;-73
2023/05/29 17:37:16;;;;;;;14.40;7.10;;;;;;;;;;10180717;28;20038;-73
2023/05/29 17:42:13;;;;;;;15.95;7.25;;;;;;;;;;10178895;28;20104;-72
2023/05/29 17:47:09;;;;;;;12.70;6.38;;;;;;;;;;10171901;28;20579;-72
2023/05/29 17:52:08;;;;;;;13.48;6.75;;;;;;;;;;10165852;28;20049;-72
2023/05/29 17:57:05;;;;;;;20.15;6.22;;;;;;;;;;10175802;28;20042;-72
2023/05/29 18:02:01;;;;;;;10.77;6.50;;;;;;;;;;10178147;28;20056;-73
2023/05/29 18:06:58;;;;;;;13.60;6.60;;;;;;;;;;10175939;28;20045;-72
2023/05/29 18:11:54;;;;;;;14.80;7.25;;;;;;;;;;10172713;28;20054;-72
2023/05/29 18:16:52;;;;;;;13.82;6.93;;;;;;;;;;10173955;28;20060;-72
2023/05/29 18:21:49;;;;;;;10.55;5.90;;;;;;;;;;10174402;28;20054;-73
2023/05/29 18:26:45;;;;;;;17.63;6.18;;;;;;;;;;10165514;28;20065;-73
2023/05/29 18:31:41;;;;;;;13.18;6.38;;;;;;;;;;10176907;28;20053;-73
2023/05/29 18:36:38;;;;;;;11.40;6.40;;;;;;;;;;10168561;28;20042;-74
2023/05/29 18:41:34;;;;;;;15.45;7.07;;;;;;;;;;10174787;28;20082;-72
2023/05/29 18:46:30;;;;;;;14.45;6.55;;;;;;;;;;10163854;28;21603;-73
2023/05/29 18:51:27;;;;;;;13.30;5.68;;;;;;;;;;10164488;28;20058;-73
2023/05/29 18:56:24;;;;;;;10.52;6.22;;;;;;;;;;10167090;28;20217;-73
2023/05/29 19:01:21;;;;;;;9.98;5.20;;;;;;;;;;10172530;28;20123;-73
2023/05/29 19:06:28;;;;;;;10.80;6.57;;;;;;;;;;10162712;28;20468;-73
2023/05/29 19:11:25;;;;;;;14.82;6.90;;;;;;;;;;10170726;28;20182;-73
2023/05/29 19:16:21;;;;;;;16.75;8.20;;;;;;;;;;10166284;28;20041;-73
2023/05/29 19:21:20;;;;;;;12.70;5.80;;;;;;;;;;10173423;28;20487;-73
2023/05/29 19:26:16;;;;;;;15.90;6.82;;;;;;;;;;10165246;28;20050;-72
2023/05/29 19:31:13;;;;;;;12.23;6.38;;;;;;;;;;10172360;28;20046;-73
2023/05/29 19:36:09;;;;;;;13.20;5.95;;;;;;;;;;10164957;28;20057;-72
2023/05/29 19:41:06;;;;;;;13.60;6.05;;;;;;;;;;10165128;28;20074;-73
2023/05/29 19:46:02;;;;;;;15.70;6.13;;;;;;;;;;10165643;28;20054;-74
2023/05/29 19:51:03;;;;;;;10.57;5.07;;;;;;;;;;10166966;28;20434;-73
2023/05/29 19:55:59;;;;;;;14.75;6.10;;;;;;;;;;10171782;28;20042;-73
2023/05/29 20:00:56;;;;;;;14.25;7.03;;;;;;;;;;10169677;28;20046;-73
2023/05/29 20:05:53;;;;;;;12.40;7.00;;;;;;;;;;10162188;28;20046;-73
2023/05/29 20:10:49;;;;;;;18.45;7.78;;;;;;;;;;10152421;28;20470;-72
2023/05/29 20:15:55;;;;;;;14.57;7.20;;;;;;;;;;10160100;28;20042;-73
2023/05/29 20:20:51;;;;;;;15.40;8.25;;;;;;;;;;10175692;28;20138;-74
2023/05/29 20:25:48;;;;;;;18.70;7.40;;;;;;;;;;10160122;28;20047;-73
2023/05/29 20:30:44;;;;;;;15.60;6.22;;;;;;;;;;10180882;28;20115;-73
2023/05/29 20:35:41;;;;;;;13.25;6.80;;;;;;;;;;10172008;28;20072;-73
2023/05/29 20:40:37;;;;;;;13.27;5.80;;;;;;;;;;10172216;28;20042;-73
2023/05/29 20:45:36;;;;;;;20.42;7.30;;;;;;;;;;10174676;28;20058;-73
2023/05/29 20:50:32;;;;;;;14.38;6.85;;;;;;;;;;10167835;28;20042;-73
2023/05/29 20:55:28;;;;;;;15.77;7.05;;;;;;;;;;10159143;28;20050;-72
2023/05/29 21:00:25;;;;;;;19.98;6.80;;;;;;;;;;10157978;28;20065;-73
2023/05/29 21:05:21;;;;;;;17.67;6.70;;;;;;;;;;10165327;28;20046;-73
2023/05/29 21:10:18;;;;;;;19.45;6.95;;;;;;;;;;10161059;28;20077;-72
2023/05/29 21:15:14;;;;;;;12.73;6.20;;;;;;;;;;10163713;28;20069;-73
2023/05/29 21:20:11;;;;;;;17.15;6.72;;;;;;;;;;10166229;28;20053;-72
2023/05/29 21:25:08;;;;;;;20.20;6.68;;;;;;;;;;10161597;28;20126;-73
2023/05/29 21:30:07;;;;;;;20.30;7.05;;;;;;;;;;10161644;28;20404;-74
2023/05/29 21:35:04;;;;;;;17.60;6.60;;;;;;;;;;10170861;28;20049;-72
2023/05/29 21:40:00;;;;;;;12.95;6.22;;;;;;;;;;10180504;28;20126;-72
2023/05/29 21:44:56;;;;;;;18.35;6.35;;;;;;;;;;10183217;28;20054;-72
2023/05/29 21:49:53;;;;;;;19.83;6.47;;;;;;;;;;10184923;28;20050;-73
2023/05/29 21:54:49;;;;;;;27.63;7.55;;;;;;;;;;10171990;28;20089;-72
2023/05/29 21:59:45;;;;;;;21.38;7.80;;;;;;;;;;10171090;28;20054;-72
2023/05/29 22:04:42;;;;;;;18.35;7.20;;;;;;;;;;10173797;28;20511;-72
2023/05/29 22:09:38;;;;;;;23.10;7.35;;;;;;;;;;10165707;28;20096;-73
2023/05/29 22:14:34;;;;;;;19.50;8.02;;;;;;;;;;10166513;28;20049;-73
2023/05/29 22:19:32;;;;;;;16.75;6.20;;;;;;;;;;10168580;28;20058;-72
2023/05/29 22:24:28;;;;;;;16.45;6.40;;;;;;;;;;10173404;28;20064;-72
2023/05/29 22:29:25;;;;;;;16.35;6.32;;;;;;;;;;10167956;28;20633;-72
2023/05/29 22:34:23;;;;;;;24.98;7.53;;;;;;;;;;10171410;28;20054;-73
2023/05/29 22:39:19;;;;;;;16.02;6.75;;;;;;;;;;10165421;28;20052;-72
2023/05/29 22:44:15;;;;;;;21.73;7.40;;;;;;;;;;10167703;28;20046;-72
2023/05/29 22:49:15;;;;;;;24.80;8.65;;;;;;;;;;10170774;28;20145;-72
2023/05/29 22:54:12;;;;;;;15.98;7.97;;;;;;;;;;10171880;28;20045;-72
2023/05/29 22:59:08;;;;;;;19.73;7.35;;;;;;;;;;10162736;28;20109;-72
2023/05/29 23:04:06;;;;;;;17.25;7.43;;;;;;;;;;10174275;28;20057;-72
2023/05/29 23:09:04;;;;;;;16.58;7.60;;;;;;;;;;10174848;28;20030;-72
2023/05/29 23:14:00;;;;;;;16.65;7.38;;;;;;;;;;10178786;28;20053;-72
2023/05/29 23:18:56;;;;;;;21.58;7.57;;;;;;;;;;10171048;28;20066;-72
2023/05/29 23:23:53;;;;;;;23.27;7.38;;;;;;;;;;10175758;28;20095;-73
2023/05/29 23:28:49;;;;;;;20.60;7.50;;;;;;;;;;10172899;28;20471;-72
2023/05/29 23:33:46;;;;;;;15.95;7.65;;;;;;;;;;10158074;28;20063;-74
2023/05/29 23:38:43;;;;;;;16.42;7.82;;;;;;;;;;10163755;28;20096;-72
2023/05/29 23:43:39;;;;;;;15.77;7.32;;;;;;;;;;10171398;28;20077;-72
2023/05/29 23:48:38;;;;;;;19.27;8.57;;;;;;;;;;10163454;28;20061;-72
2023/05/29 23:53:34;;;;;;;16.85;7.25;;;;;;;;;;10171536;28;20050;-73
2023/05/29 23:58:31;;;;;;;18.88;7.72;;;;;;;;;;10158229;28;20051;-72
